sensor_id;sensor_type;location;lat;lon;timestamp;temperature;humidity
29725;DHT22;16636;48.394;15.468;2023-02-24T00:01:19;10.00;99.90
29725;DHT22;16636;48.394;15.468;2023-02-24T00:03:53;9.90;99.90
29725;DHT22;16636;48.394;15.468;2023-02-24T00:06:28;9.90;99.90
29725;DHT22;16636;48.394;15.468;2023-02-24T00:09:06;9.80;99.90
29725;DHT22;16636;48.394;15.468;2023-02-24T00:11:41;9.80;99.90
29725;DHT22;16636;48.394;15.468;2023-02-24T00:14:10;9.70;99.90
29725;DHT22;16636;48.394;15.468;2023-02-24T00:16:37;9.70;99.90
29725;DHT22;16636;48.394;15.468;2023-02-24T00:19:04;9.70;99.90
29725;DHT22;16636;48.394;15.468;2023-02-24T00:21:33;9.70;99.90
29725;DHT22;16636;48.394;15.468;2023-02-24T00:24:00;9.70;99.90
29725;DHT22;16636;48.394;15.468;2023-02-24T00:26:26;9.70;99.90
29725;DHT22;16636;48.394;15.468;2023-02-24T00:28:57;9.70;99.90
29725;DHT22;16636;48.394;15.468;2023-02-24T00:31:26;9.70;99.90
29725;DHT22;16636;48.394;15.468;2023-02-24T00:33:57;9.80;99.90
29725;DHT22;16636;48.394;15.468;2023-02-24T00:36:24;9.80;99.90
29725;DHT22;16636;48.394;15.468;2023-02-24T00:38:56;9.80;99.90
29725;DHT22;16636;48.394;15.468;2023-02-24T00:41:31;9.80;99.90
29725;DHT22;16636;48.394;15.468;2023-02-24T00:43:59;9.80;99.90
29725;DHT22;16636;48.394;15.468;2023-02-24T00:46:34;9.80;99.90
29725;DHT22;16636;48.394;15.468;2023-02-24T00:49:03;9.80;99.90
29725;DHT22;16636;48.394;15.468;2023-02-24T00:51:39;9.70;99.90
29725;DHT22;16636;48.394;15.468;2023-02-24T00:54:07;9.70;99.90
29725;DHT22;16636;48.394;15.468;2023-02-24T00:56:33;9.70;99.90
29725;DHT22;16636;48.394;15.468;2023-02-24T00:59:00;9.70;99.90
29725;DHT22;16636;48.394;15.468;2023-02-24T01:01:30;9.70;99.90
29725;DHT22;16636;48.394;15.468;2023-02-24T01:04:01;9.70;99.90
29725;DHT22;16636;48.394;15.468;2023-02-24T01:06:41;9.70;99.90
29725;DHT22;16636;48.394;15.468;2023-02-24T01:09:10;9.70;99.90
29725;DHT22;16636;48.394;15.468;2023-02-24T01:11:38;9.70;99.90
29725;DHT22;16636;48.394;15.468;2023-02-24T01:14:36;9.70;99.90
29725;DHT22;16636;48.394;15.468;2023-02-24T01:17:06;9.60;99.90
29725;DHT22;16636;48.394;15.468;2023-02-24T01:19:33;9.70;99.90
29725;DHT22;16636;48.394;15.468;2023-02-24T01:22:05;9.70;99.90
29725;DHT22;16636;48.394;15.468;2023-02-24T01:24:34;9.70;99.90
29725;DHT22;16636;48.394;15.468;2023-02-24T01:27:01;9.70;99.90
29725;DHT22;16636;48.394;15.468;2023-02-24T01:29:27;9.70;99.90
29725;DHT22;16636;48.394;15.468;2023-02-24T01:31:53;9.70;99.90
29725;DHT22;16636;48.394;15.468;2023-02-24T01:34:25;9.60;99.90
29725;DHT22;16636;48.394;15.468;2023-02-24T01:36:52;9.60;99.90
29725;DHT22;16636;48.394;15.468;2023-02-24T01:39:19;9.60;99.90
29725;DHT22;16636;48.394;15.468;2023-02-24T01:41:48;9.60;99.90
29725;DHT22;16636;48.394;15.468;2023-02-24T01:46:50;9.60;99.90
29725;DHT22;16636;48.394;15.468;2023-02-24T01:54:33;9.50;99.90
29725;DHT22;16636;48.394;15.468;2023-02-24T01:57:00;9.50;99.90
29725;DHT22;16636;48.394;15.468;2023-02-24T01:59:32;9.50;99.90
29725;DHT22;16636;48.394;15.468;2023-02-24T02:02:09;9.50;99.90
29725;DHT22;16636;48.394;15.468;2023-02-24T02:05:04;9.50;99.90
29725;DHT22;16636;48.394;15.468;2023-02-24T02:07:31;9.50;99.90
29725;DHT22;16636;48.394;15.468;2023-02-24T02:09:59;9.40;99.90
29725;DHT22;16636;48.394;15.468;2023-02-24T02:12:30;9.40;99.90
29725;DHT22;16636;48.394;15.468;2023-02-24T02:15:00;9.40;99.90
29725;DHT22;16636;48.394;15.468;2023-02-24T02:17:35;9.40;99.90
29725;DHT22;16636;48.394;15.468;2023-02-24T02:31:48;9.30;99.90
29725;DHT22;16636;48.394;15.468;2023-02-24T02:37:11;9.30;99.90
29725;DHT22;16636;48.394;15.468;2023-02-24T02:40:16;9.30;99.90
29725;DHT22;16636;48.394;15.468;2023-02-24T02:43:10;9.40;99.90
29725;DHT22;16636;48.394;15.468;2023-02-24T02:45:56;9.40;99.90
29725;DHT22;16636;48.394;15.468;2023-02-24T02:48:36;9.40;99.90
29725;DHT22;16636;48.394;15.468;2023-02-24T02:51:16;9.30;99.90
29725;DHT22;16636;48.394;15.468;2023-02-24T02:56:21;9.30;99.90
29725;DHT22;16636;48.394;15.468;2023-02-24T02:58:51;9.30;99.90
29725;DHT22;16636;48.394;15.468;2023-02-24T03:01:21;9.20;99.90
29725;DHT22;16636;48.394;15.468;2023-02-24T03:03:53;9.20;99.90
29725;DHT22;16636;48.394;15.468;2023-02-24T03:06:30;9.20;99.90
29725;DHT22;16636;48.394;15.468;2023-02-24T03:09:09;9.20;99.90
29725;DHT22;16636;48.394;15.468;2023-02-24T03:11:45;9.20;99.90
29725;DHT22;16636;48.394;15.468;2023-02-24T03:14:21;9.20;99.90
29725;DHT22;16636;48.394;15.468;2023-02-24T03:16:51;9.20;99.90
29725;DHT22;16636;48.394;15.468;2023-02-24T03:19:24;9.10;99.90
29725;DHT22;16636;48.394;15.468;2023-02-24T03:22:24;9.10;99.90
29725;DHT22;16636;48.394;15.468;2023-02-24T03:24:53;9.10;99.90
29725;DHT22;16636;48.394;15.468;2023-02-24T03:27:33;9.10;99.90
29725;DHT22;16636;48.394;15.468;2023-02-24T03:30:14;9.10;99.90
29725;DHT22;16636;48.394;15.468;2023-02-24T03:32:52;9.00;99.90
29725;DHT22;16636;48.394;15.468;2023-02-24T03:35:35;9.10;99.90
29725;DHT22;16636;48.394;15.468;2023-02-24T03:38:03;9.00;99.90
29725;DHT22;16636;48.394;15.468;2023-02-24T03:40:31;9.00;99.90
29725;DHT22;16636;48.394;15.468;2023-02-24T03:43:22;9.00;99.90
29725;DHT22;16636;48.394;15.468;2023-02-24T03:45:52;9.00;99.90
29725;DHT22;16636;48.394;15.468;2023-02-24T03:48:19;9.00;99.90
29725;DHT22;16636;48.394;15.468;2023-02-24T03:50:46;9.10;99.90
29725;DHT22;16636;48.394;15.468;2023-02-24T03:56:23;9.10;99.90
29725;DHT22;16636;48.394;15.468;2023-02-24T03:59:26;9.10;99.90
29725;DHT22;16636;48.394;15.468;2023-02-24T04:02:26;9.10;99.90
29725;DHT22;16636;48.394;15.468;2023-02-24T04:05:03;9.10;99.90
29725;DHT22;16636;48.394;15.468;2023-02-24T04:07:54;9.10;99.90
29725;DHT22;16636;48.394;15.468;2023-02-24T04:13:37;9.10;99.90
29725;DHT22;16636;48.394;15.468;2023-02-24T04:16:27;9.00;99.90
29725;DHT22;16636;48.394;15.468;2023-02-24T04:19:08;9.00;99.90
29725;DHT22;16636;48.394;15.468;2023-02-24T04:21:41;9.00;99.90
29725;DHT22;16636;48.394;15.468;2023-02-24T04:24:16;9.00;99.90
29725;DHT22;16636;48.394;15.468;2023-02-24T04:26:46;9.00;99.90
29725;DHT22;16636;48.394;15.468;2023-02-24T04:29:16;8.90;99.90
29725;DHT22;16636;48.394;15.468;2023-02-24T04:31:59;8.90;99.90
29725;DHT22;16636;48.394;15.468;2023-02-24T04:34:27;8.90;99.90
29725;DHT22;16636;48.394;15.468;2023-02-24T04:36:59;8.90;99.90
29725;DHT22;16636;48.394;15.468;2023-02-24T04:39:28;8.90;99.90
29725;DHT22;16636;48.394;15.468;2023-02-24T04:41:58;8.90;99.90
29725;DHT22;16636;48.394;15.468;2023-02-24T04:44:26;8.90;99.90
29725;DHT22;16636;48.394;15.468;2023-02-24T04:46:53;8.90;99.90
29725;DHT22;16636;48.394;15.468;2023-02-24T04:49:20;8.90;99.90
29725;DHT22;16636;48.394;15.468;2023-02-24T04:51:46;8.90;99.90
29725;DHT22;16636;48.394;15.468;2023-02-24T04:54:14;8.90;99.90
29725;DHT22;16636;48.394;15.468;2023-02-24T04:56:43;8.90;99.90
29725;DHT22;16636;48.394;15.468;2023-02-24T04:59:10;8.90;99.90
29725;DHT22;16636;48.394;15.468;2023-02-24T05:01:36;8.80;99.90
29725;DHT22;16636;48.394;15.468;2023-02-24T05:04:06;8.80;99.90
29725;DHT22;16636;48.394;15.468;2023-02-24T05:06:33;8.80;99.90
29725;DHT22;16636;48.394;15.468;2023-02-24T05:08:59;8.80;99.90
29725;DHT22;16636;48.394;15.468;2023-02-24T05:11:42;8.80;99.90
29725;DHT22;16636;48.394;15.468;2023-02-24T05:14:10;8.70;99.90
29725;DHT22;16636;48.394;15.468;2023-02-24T05:16:44;8.70;99.90
29725;DHT22;16636;48.394;15.468;2023-02-24T05:19:16;8.70;99.90
29725;DHT22;16636;48.394;15.468;2023-02-24T05:22:05;8.70;99.90
29725;DHT22;16636;48.394;15.468;2023-02-24T05:24:33;8.70;99.90
29725;DHT22;16636;48.394;15.468;2023-02-24T05:26:59;8.60;99.90
29725;DHT22;16636;48.394;15.468;2023-02-24T05:29:28;8.60;99.90
29725;DHT22;16636;48.394;15.468;2023-02-24T05:32:02;8.60;99.90
29725;DHT22;16636;48.394;15.468;2023-02-24T05:34:31;8.50;99.90
29725;DHT22;16636;48.394;15.468;2023-02-24T05:37:00;8.50;99.90
29725;DHT22;16636;48.394;15.468;2023-02-24T05:39:33;8.50;99.90
29725;DHT22;16636;48.394;15.468;2023-02-24T05:41:59;8.50;99.90
29725;DHT22;16636;48.394;15.468;2023-02-24T05:44:31;8.40;99.90
29725;DHT22;16636;48.394;15.468;2023-02-24T05:47:00;8.40;99.90
29725;DHT22;16636;48.394;15.468;2023-02-24T05:49:30;8.40;99.90
29725;DHT22;16636;48.394;15.468;2023-02-24T05:52:01;8.40;99.90
29725;DHT22;16636;48.394;15.468;2023-02-24T05:54:36;8.40;99.90
29725;DHT22;16636;48.394;15.468;2023-02-24T05:57:11;8.40;99.90
29725;DHT22;16636;48.394;15.468;2023-02-24T05:59:41;8.40;99.90
29725;DHT22;16636;48.394;15.468;2023-02-24T06:02:11;8.40;99.90
29725;DHT22;16636;48.394;15.468;2023-02-24T06:04:41;8.40;99.90
29725;DHT22;16636;48.394;15.468;2023-02-24T06:07:36;8.40;99.90
29725;DHT22;16636;48.394;15.468;2023-02-24T06:10:02;8.40;99.90
29725;DHT22;16636;48.394;15.468;2023-02-24T06:12:34;8.40;99.90
29725;DHT22;16636;48.394;15.468;2023-02-24T06:15:05;8.40;99.90
29725;DHT22;16636;48.394;15.468;2023-02-24T06:17:38;8.40;99.90
29725;DHT22;16636;48.394;15.468;2023-02-24T06:20:13;8.40;99.90
29725;DHT22;16636;48.394;15.468;2023-02-24T06:22:41;8.40;99.90
29725;DHT22;16636;48.394;15.468;2023-02-24T06:25:08;8.40;99.90
29725;DHT22;16636;48.394;15.468;2023-02-24T06:27:38;8.40;99.90
29725;DHT22;16636;48.394;15.468;2023-02-24T06:30:05;8.40;99.90
29725;DHT22;16636;48.394;15.468;2023-02-24T06:32:35;8.40;99.90
29725;DHT22;16636;48.394;15.468;2023-02-24T06:35:01;8.40;99.90
29725;DHT22;16636;48.394;15.468;2023-02-24T06:37:28;8.50;99.90
29725;DHT22;16636;48.394;15.468;2023-02-24T06:40:00;8.50;99.90
29725;DHT22;16636;48.394;15.468;2023-02-24T06:42:28;8.50;99.90
29725;DHT22;16636;48.394;15.468;2023-02-24T06:44:54;8.50;99.90
29725;DHT22;16636;48.394;15.468;2023-02-24T06:47:21;8.50;99.90
29725;DHT22;16636;48.394;15.468;2023-02-24T06:49:57;8.50;99.90
29725;DHT22;16636;48.394;15.468;2023-02-24T06:52:24;8.50;99.90
29725;DHT22;16636;48.394;15.468;2023-02-24T06:54:54;8.60;99.90
29725;DHT22;16636;48.394;15.468;2023-02-24T06:57:26;8.60;99.90
29725;DHT22;16636;48.394;15.468;2023-02-24T07:00:28;8.60;99.90
29725;DHT22;16636;48.394;15.468;2023-02-24T07:03:11;8.60;99.90
29725;DHT22;16636;48.394;15.468;2023-02-24T07:05:52;8.60;99.90
29725;DHT22;16636;48.394;15.468;2023-02-24T07:08:24;8.60;99.90
29725;DHT22;16636;48.394;15.468;2023-02-24T07:10:57;8.60;99.90
29725;DHT22;16636;48.394;15.468;2023-02-24T07:13:37;8.60;99.90
29725;DHT22;16636;48.394;15.468;2023-02-24T07:16:06;8.60;99.90
29725;DHT22;16636;48.394;15.468;2023-02-24T07:18:33;8.60;99.90
29725;DHT22;16636;48.394;15.468;2023-02-24T07:21:05;8.60;99.90
29725;DHT22;16636;48.394;15.468;2023-02-24T07:23:41;8.60;99.90
29725;DHT22;16636;48.394;15.468;2023-02-24T07:26:13;8.60;99.90
29725;DHT22;16636;48.394;15.468;2023-02-24T07:28:41;8.50;99.90
29725;DHT22;16636;48.394;15.468;2023-02-24T07:31:18;8.60;99.90
29725;DHT22;16636;48.394;15.468;2023-02-24T07:33:57;8.60;99.90
29725;DHT22;16636;48.394;15.468;2023-02-24T07:36:26;8.60;99.90
29725;DHT22;16636;48.394;15.468;2023-02-24T07:42:21;8.60;99.90
29725;DHT22;16636;48.394;15.468;2023-02-24T07:44:55;8.60;99.90
29725;DHT22;16636;48.394;15.468;2023-02-24T07:47:26;8.70;99.90
29725;DHT22;16636;48.394;15.468;2023-02-24T07:49:55;8.70;99.90
29725;DHT22;16636;48.394;15.468;2023-02-24T07:52:21;8.70;99.90
29725;DHT22;16636;48.394;15.468;2023-02-24T07:54:47;8.70;99.90
29725;DHT22;16636;48.394;15.468;2023-02-24T07:57:17;8.70;99.90
29725;DHT22;16636;48.394;15.468;2023-02-24T07:59:43;8.70;99.90
29725;DHT22;16636;48.394;15.468;2023-02-24T08:02:12;8.70;99.90
29725;DHT22;16636;48.394;15.468;2023-02-24T08:04:42;8.80;99.90
29725;DHT22;16636;48.394;15.468;2023-02-24T08:07:18;8.80;99.90
29725;DHT22;16636;48.394;15.468;2023-02-24T08:09:54;8.80;99.90
29725;DHT22;16636;48.394;15.468;2023-02-24T08:12:42;8.80;99.90
29725;DHT22;16636;48.394;15.468;2023-02-24T08:15:09;8.90;99.90
29725;DHT22;16636;48.394;15.468;2023-02-24T08:17:42;8.90;99.90
29725;DHT22;16636;48.394;15.468;2023-02-24T08:20:12;9.00;99.90
29725;DHT22;16636;48.394;15.468;2023-02-24T08:22:43;9.00;99.90
29725;DHT22;16636;48.394;15.468;2023-02-24T08:25:35;9.10;99.90
29725;DHT22;16636;48.394;15.468;2023-02-24T08:28:06;9.10;99.90
29725;DHT22;16636;48.394;15.468;2023-02-24T08:30:39;9.10;99.90
29725;DHT22;16636;48.394;15.468;2023-02-24T08:33:17;9.10;99.90
29725;DHT22;16636;48.394;15.468;2023-02-24T08:35:53;9.10;99.90
29725;DHT22;16636;48.394;15.468;2023-02-24T08:38:27;9.10;99.90
29725;DHT22;16636;48.394;15.468;2023-02-24T08:41:27;9.20;99.90
29725;DHT22;16636;48.394;15.468;2023-02-24T08:44:11;9.30;99.90
29725;DHT22;16636;48.394;15.468;2023-02-24T08:46:39;9.30;99.90
29725;DHT22;16636;48.394;15.468;2023-02-24T08:49:13;9.50;99.90
29725;DHT22;16636;48.394;15.468;2023-02-24T08:51:51;9.60;99.90
29725;DHT22;16636;48.394;15.468;2023-02-24T08:54:20;9.60;99.90
29725;DHT22;16636;48.394;15.468;2023-02-24T08:56:53;9.70;99.90
29725;DHT22;16636;48.394;15.468;2023-02-24T08:59:48;9.80;99.90
29725;DHT22;16636;48.394;15.468;2023-02-24T09:02:44;9.90;99.90
29725;DHT22;16636;48.394;15.468;2023-02-24T09:06:25;10.00;99.90
29725;DHT22;16636;48.394;15.468;2023-02-24T09:08:55;10.00;99.90
29725;DHT22;16636;48.394;15.468;2023-02-24T09:11:46;10.00;99.90
29725;DHT22;16636;48.394;15.468;2023-02-24T09:14:17;10.00;99.90
29725;DHT22;16636;48.394;15.468;2023-02-24T09:16:47;10.00;99.90
29725;DHT22;16636;48.394;15.468;2023-02-24T09:19:45;10.30;99.90
29725;DHT22;16636;48.394;15.468;2023-02-24T09:22:22;10.40;99.90
29725;DHT22;16636;48.394;15.468;2023-02-24T09:25:13;10.50;99.90
29725;DHT22;16636;48.394;15.468;2023-02-24T09:27:53;10.50;99.90
29725;DHT22;16636;48.394;15.468;2023-02-24T09:30:49;10.50;99.90
29725;DHT22;16636;48.394;15.468;2023-02-24T09:33:33;10.80;99.90
29725;DHT22;16636;48.394;15.468;2023-02-24T09:36:12;10.90;99.90
29725;DHT22;16636;48.394;15.468;2023-02-24T09:38:52;10.80;99.90
29725;DHT22;16636;48.394;15.468;2023-02-24T09:41:41;10.70;99.90
29725;DHT22;16636;48.394;15.468;2023-02-24T09:44:35;10.70;99.90
29725;DHT22;16636;48.394;15.468;2023-02-24T09:47:25;10.70;99.90
29725;DHT22;16636;48.394;15.468;2023-02-24T09:52:54;10.90;99.90
29725;DHT22;16636;48.394;15.468;2023-02-24T09:55:43;10.90;99.90
29725;DHT22;16636;48.394;15.468;2023-02-24T09:58:48;10.90;99.90
29725;DHT22;16636;48.394;15.468;2023-02-24T10:04:59;11.60;99.90
29725;DHT22;16636;48.394;15.468;2023-02-24T10:07:38;12.00;99.90
29725;DHT22;16636;48.394;15.468;2023-02-24T10:10:21;12.20;99.90
29725;DHT22;16636;48.394;15.468;2023-02-24T10:13:00;12.20;99.90
29725;DHT22;16636;48.394;15.468;2023-02-24T10:16:09;12.40;99.90
29725;DHT22;16636;48.394;15.468;2023-02-24T10:21:55;12.60;99.90
29725;DHT22;16636;48.394;15.468;2023-02-24T10:33:18;13.10;99.90
29725;DHT22;16636;48.394;15.468;2023-02-24T10:36:42;13.10;99.90
29725;DHT22;16636;48.394;15.468;2023-02-24T10:39:37;13.20;99.90
29725;DHT22;16636;48.394;15.468;2023-02-24T10:42:29;13.30;99.90
29725;DHT22;16636;48.394;15.468;2023-02-24T10:45:29;13.30;99.90
29725;DHT22;16636;48.394;15.468;2023-02-24T10:48:08;13.20;99.90
29725;DHT22;16636;48.394;15.468;2023-02-24T10:50:43;13.20;99.90
29725;DHT22;16636;48.394;15.468;2023-02-24T10:53:26;13.20;99.90
29725;DHT22;16636;48.394;15.468;2023-02-24T10:56:28;13.30;99.90
29725;DHT22;16636;48.394;15.468;2023-02-24T11:03:07;13.60;99.90
29725;DHT22;16636;48.394;15.468;2023-02-24T11:05:42;14.10;99.90
29725;DHT22;16636;48.394;15.468;2023-02-24T11:08:27;14.40;99.90
29725;DHT22;16636;48.394;15.468;2023-02-24T11:11:33;14.70;99.90
29725;DHT22;16636;48.394;15.468;2023-02-24T11:14:19;14.90;99.90
29725;DHT22;16636;48.394;15.468;2023-02-24T11:17:18;14.90;99.90
29725;DHT22;16636;48.394;15.468;2023-02-24T11:22:16;15.10;99.90
29725;DHT22;16636;48.394;15.468;2023-02-24T11:24:45;15.30;99.90
29725;DHT22;16636;48.394;15.468;2023-02-24T11:27:14;15.30;99.90
29725;DHT22;16636;48.394;15.468;2023-02-24T11:29:53;15.40;99.90
29725;DHT22;16636;48.394;15.468;2023-02-24T11:35:25;14.80;99.90
29725;DHT22;16636;48.394;15.468;2023-02-24T11:38:18;14.50;99.90
29725;DHT22;16636;48.394;15.468;2023-02-24T11:41:02;14.40;99.90
29725;DHT22;16636;48.394;15.468;2023-02-24T11:43:33;14.20;99.90
29725;DHT22;16636;48.394;15.468;2023-02-24T11:46:13;14.00;99.90
29725;DHT22;16636;48.394;15.468;2023-02-24T11:48:46;14.00;99.90
29725;DHT22;16636;48.394;15.468;2023-02-24T11:51:23;13.90;99.90
29725;DHT22;16636;48.394;15.468;2023-02-24T11:54:12;13.90;99.90
29725;DHT22;16636;48.394;15.468;2023-02-24T11:56:43;13.90;99.90
29725;DHT22;16636;48.394;15.468;2023-02-24T11:59:17;14.00;99.90
29725;DHT22;16636;48.394;15.468;2023-02-24T12:04:42;14.20;99.90
29725;DHT22;16636;48.394;15.468;2023-02-24T12:07:33;14.30;99.90
29725;DHT22;16636;48.394;15.468;2023-02-24T12:10:27;14.30;99.90
29725;DHT22;16636;48.394;15.468;2023-02-24T12:15:30;14.20;99.90
29725;DHT22;16636;48.394;15.468;2023-02-24T12:18:30;14.10;99.90
29725;DHT22;16636;48.394;15.468;2023-02-24T12:20:59;14.20;99.90
29725;DHT22;16636;48.394;15.468;2023-02-24T12:23:32;14.30;99.90
29725;DHT22;16636;48.394;15.468;2023-02-24T12:26:18;14.30;99.90
29725;DHT22;16636;48.394;15.468;2023-02-24T12:46:26;14.10;99.90
29725;DHT22;16636;48.394;15.468;2023-02-24T12:49:10;14.10;99.90
29725;DHT22;16636;48.394;15.468;2023-02-24T12:57:50;14.00;99.90
29725;DHT22;16636;48.394;15.468;2023-02-24T13:03:21;14.00;99.90
29725;DHT22;16636;48.394;15.468;2023-02-24T13:11:43;14.20;99.90
29725;DHT22;16636;48.394;15.468;2023-02-24T13:14:15;14.20;99.90
29725;DHT22;16636;48.394;15.468;2023-02-24T13:16:45;14.20;99.90
29725;DHT22;16636;48.394;15.468;2023-02-24T13:24:39;14.10;99.90
29725;DHT22;16636;48.394;15.468;2023-02-24T13:27:25;14.10;99.90
29725;DHT22;16636;48.394;15.468;2023-02-24T13:29:57;14.00;99.90
29725;DHT22;16636;48.394;15.468;2023-02-24T13:32:31;13.90;99.90
29725;DHT22;16636;48.394;15.468;2023-02-24T13:37:36;13.80;99.90
29725;DHT22;16636;48.394;15.468;2023-02-24T13:45:36;13.70;99.90
29725;DHT22;16636;48.394;15.468;2023-02-24T13:56:25;13.80;99.90
29725;DHT22;16636;48.394;15.468;2023-02-24T14:02:13;13.90;99.90
29725;DHT22;16636;48.394;15.468;2023-02-24T14:04:49;14.20;99.90
29725;DHT22;16636;48.394;15.468;2023-02-24T14:07:21;14.30;99.90
29725;DHT22;16636;48.394;15.468;2023-02-24T14:09:52;14.40;99.90
29725;DHT22;16636;48.394;15.468;2023-02-24T14:12:30;14.30;99.90
29725;DHT22;16636;48.394;15.468;2023-02-24T14:14:58;14.30;99.90
29725;DHT22;16636;48.394;15.468;2023-02-24T14:17:31;14.20;99.90
29725;DHT22;16636;48.394;15.468;2023-02-24T14:20:20;14.10;99.90
29725;DHT22;16636;48.394;15.468;2023-02-24T14:22:50;14.10;99.90
29725;DHT22;16636;48.394;15.468;2023-02-24T14:25:18;14.10;99.90
29725;DHT22;16636;48.394;15.468;2023-02-24T14:27:47;14.10;99.90
29725;DHT22;16636;48.394;15.468;2023-02-24T14:30:36;14.10;99.90
29725;DHT22;16636;48.394;15.468;2023-02-24T14:33:04;14.10;99.90
29725;DHT22;16636;48.394;15.468;2023-02-24T14:35:38;14.10;99.90
29725;DHT22;16636;48.394;15.468;2023-02-24T14:38:06;14.00;99.90
29725;DHT22;16636;48.394;15.468;2023-02-24T14:40:47;14.00;99.90
29725;DHT22;16636;48.394;15.468;2023-02-24T14:43:13;13.90;99.90
29725;DHT22;16636;48.394;15.468;2023-02-24T14:45:50;13.80;99.90
29725;DHT22;16636;48.394;15.468;2023-02-24T14:48:27;13.80;99.90
29725;DHT22;16636;48.394;15.468;2023-02-24T14:51:22;13.80;99.90
29725;DHT22;16636;48.394;15.468;2023-02-24T14:53:57;13.70;99.90
29725;DHT22;16636;48.394;15.468;2023-02-24T14:56:29;13.70;99.90
29725;DHT22;16636;48.394;15.468;2023-02-24T14:59:17;13.70;99.90
29725;DHT22;16636;48.394;15.468;2023-02-24T15:01:48;13.60;99.90
29725;DHT22;16636;48.394;15.468;2023-02-24T15:06:50;13.60;99.90
29725;DHT22;16636;48.394;15.468;2023-02-24T15:09:22;13.60;99.90
29725;DHT22;16636;48.394;15.468;2023-02-24T15:11:50;13.60;99.90
29725;DHT22;16636;48.394;15.468;2023-02-24T15:14:28;13.60;99.90
29725;DHT22;16636;48.394;15.468;2023-02-24T15:17:01;13.60;99.90
29725;DHT22;16636;48.394;15.468;2023-02-24T15:19:34;13.60;99.90
29725;DHT22;16636;48.394;15.468;2023-02-24T15:22:27;13.60;99.90
29725;DHT22;16636;48.394;15.468;2023-02-24T15:28:00;13.60;99.90
29725;DHT22;16636;48.394;15.468;2023-02-24T15:30:36;13.60;99.90
29725;DHT22;16636;48.394;15.468;2023-02-24T15:33:05;13.50;99.90
29725;DHT22;16636;48.394;15.468;2023-02-24T15:35:34;13.50;99.90
29725;DHT22;16636;48.394;15.468;2023-02-24T15:38:03;13.50;99.90
29725;DHT22;16636;48.394;15.468;2023-02-24T15:40:30;13.50;99.90
29725;DHT22;16636;48.394;15.468;2023-02-24T15:43:08;13.40;99.90
29725;DHT22;16636;48.394;15.468;2023-02-24T15:45:37;13.40;99.90
29725;DHT22;16636;48.394;15.468;2023-02-24T15:48:20;13.40;99.90
29725;DHT22;16636;48.394;15.468;2023-02-24T15:50:47;13.40;99.90
29725;DHT22;16636;48.394;15.468;2023-02-24T15:53:14;13.30;99.90
29725;DHT22;16636;48.394;15.468;2023-02-24T15:55:42;13.30;99.90
29725;DHT22;16636;48.394;15.468;2023-02-24T15:58:26;13.20;99.90
29725;DHT22;16636;48.394;15.468;2023-02-24T16:00:52;13.20;99.90
29725;DHT22;16636;48.394;15.468;2023-02-24T16:03:18;13.10;99.90
29725;DHT22;16636;48.394;15.468;2023-02-24T16:05:45;13.10;99.90
29725;DHT22;16636;48.394;15.468;2023-02-24T16:08:14;13.00;99.90
29725;DHT22;16636;48.394;15.468;2023-02-24T16:10:41;13.00;99.90
29725;DHT22;16636;48.394;15.468;2023-02-24T16:13:21;13.00;99.90
29725;DHT22;16636;48.394;15.468;2023-02-24T16:15:49;13.00;99.90
29725;DHT22;16636;48.394;15.468;2023-02-24T16:18:19;12.90;99.90
29725;DHT22;16636;48.394;15.468;2023-02-24T16:20:46;12.90;99.90
29725;DHT22;16636;48.394;15.468;2023-02-24T16:23:23;12.90;99.90
29725;DHT22;16636;48.394;15.468;2023-02-24T16:25:57;12.80;99.90
29725;DHT22;16636;48.394;15.468;2023-02-24T16:28:24;12.70;99.90
29725;DHT22;16636;48.394;15.468;2023-02-24T16:30:51;12.70;99.90
29725;DHT22;16636;48.394;15.468;2023-02-24T16:33:18;12.70;99.90
29725;DHT22;16636;48.394;15.468;2023-02-24T16:35:47;12.60;99.90
29725;DHT22;16636;48.394;15.468;2023-02-24T16:38:16;12.50;99.90
29725;DHT22;16636;48.394;15.468;2023-02-24T16:40:45;12.40;99.90
29725;DHT22;16636;48.394;15.468;2023-02-24T16:43:11;12.40;99.90
29725;DHT22;16636;48.394;15.468;2023-02-24T16:45:42;12.40;99.90
29725;DHT22;16636;48.394;15.468;2023-02-24T16:48:23;12.20;99.90
29725;DHT22;16636;48.394;15.468;2023-02-24T16:50:50;12.20;99.90
29725;DHT22;16636;48.394;15.468;2023-02-24T16:53:19;12.10;99.90
29725;DHT22;16636;48.394;15.468;2023-02-24T16:55:46;12.10;99.90
29725;DHT22;16636;48.394;15.468;2023-02-24T16:58:12;12.20;99.90
29725;DHT22;16636;48.394;15.468;2023-02-24T17:00:40;12.20;99.90
29725;DHT22;16636;48.394;15.468;2023-02-24T17:03:22;12.10;99.90
29725;DHT22;16636;48.394;15.468;2023-02-24T17:05:49;12.10;99.90
29725;DHT22;16636;48.394;15.468;2023-02-24T17:08:16;12.10;99.90
29725;DHT22;16636;48.394;15.468;2023-02-24T17:10:43;12.10;99.90
29725;DHT22;16636;48.394;15.468;2023-02-24T17:13:15;12.10;99.90
29725;DHT22;16636;48.394;15.468;2023-02-24T17:15:41;12.10;99.90
29725;DHT22;16636;48.394;15.468;2023-02-24T17:18:08;12.10;99.90
29725;DHT22;16636;48.394;15.468;2023-02-24T17:20:35;12.00;99.90
29725;DHT22;16636;48.394;15.468;2023-02-24T17:23:02;12.00;99.90
29725;DHT22;16636;48.394;15.468;2023-02-24T17:25:30;12.00;99.90
29725;DHT22;16636;48.394;15.468;2023-02-24T17:27:57;12.00;99.90
29725;DHT22;16636;48.394;15.468;2023-02-24T17:30:26;12.00;99.90
29725;DHT22;16636;48.394;15.468;2023-02-24T17:32:53;12.00;99.90
29725;DHT22;16636;48.394;15.468;2023-02-24T17:35:20;12.10;99.90
29725;DHT22;16636;48.394;15.468;2023-02-24T17:37:46;12.10;99.90
29725;DHT22;16636;48.394;15.468;2023-02-24T17:40:13;12.10;99.90
29725;DHT22;16636;48.394;15.468;2023-02-24T17:42:39;12.10;99.90
29725;DHT22;16636;48.394;15.468;2023-02-24T17:45:07;12.10;99.90
29725;DHT22;16636;48.394;15.468;2023-02-24T17:47:33;12.10;99.90
29725;DHT22;16636;48.394;15.468;2023-02-24T17:50:01;12.10;99.90
29725;DHT22;16636;48.394;15.468;2023-02-24T17:52:27;12.10;99.90
29725;DHT22;16636;48.394;15.468;2023-02-24T17:54:54;12.10;99.90
29725;DHT22;16636;48.394;15.468;2023-02-24T17:57:21;12.10;99.90
29725;DHT22;16636;48.394;15.468;2023-02-24T17:59:53;12.10;99.90
29725;DHT22;16636;48.394;15.468;2023-02-24T18:02:20;12.10;99.90
29725;DHT22;16636;48.394;15.468;2023-02-24T18:04:48;12.00;99.90
29725;DHT22;16636;48.394;15.468;2023-02-24T18:07:14;12.00;99.90
29725;DHT22;16636;48.394;15.468;2023-02-24T18:09:41;11.90;99.90
29725;DHT22;16636;48.394;15.468;2023-02-24T18:12:07;11.70;99.90
29725;DHT22;16636;48.394;15.468;2023-02-24T18:14:33;11.50;99.90
29725;DHT22;16636;48.394;15.468;2023-02-24T18:16:59;11.40;99.90
29725;DHT22;16636;48.394;15.468;2023-02-24T18:19:25;11.30;99.90
29725;DHT22;16636;48.394;15.468;2023-02-24T18:21:51;11.20;99.90